createdAt,value
2022-12-25T00:03:29.005Z,96.59
2022-12-25T00:08:30.589Z,96.45
2022-12-25T00:13:33.210Z,96.42
2022-12-25T00:18:34.961Z,96.98
2022-12-25T00:23:36.268Z,97.51
2022-12-25T00:28:38.849Z,97.09
2022-12-25T00:33:42.432Z,96.98
2022-12-25T00:38:46.137Z,96.82
2022-12-25T00:43:47.451Z,97.07
2022-12-25T00:48:48.824Z,97.15
2022-12-25T00:53:50.138Z,97.35
2022-12-25T00:58:51.445Z,98.06
2022-12-25T01:03:52.828Z,97.96
2022-12-25T01:09:12.785Z,97.48
2022-12-25T01:14:14.407Z,97.64
2022-12-25T01:19:15.901Z,97.76
2022-12-25T01:24:17.914Z,97.67
2022-12-25T01:29:19.178Z,97.84
2022-12-25T01:34:20.850Z,98.08
2022-12-25T01:39:22.561Z,97.77
2022-12-25T01:44:47.761Z,97.96
2022-12-25T01:49:50.305Z,98.13
2022-12-25T01:54:57.147Z,97.81
2022-12-25T02:00:00.312Z,97.39
2022-12-25T02:05:08.296Z,97.04
2022-12-25T02:10:11.213Z,97.12
2022-12-25T02:15:20.269Z,96.99
2022-12-25T02:20:43.565Z,96.88
2022-12-25T02:26:22.130Z,97.31
2022-12-25T02:31:52.464Z,97.28
2022-12-25T02:37:15.952Z,97.50
2022-12-25T02:42:59.978Z,97.93
2022-12-25T02:48:21.915Z,97.90
2022-12-25T02:53:41.931Z,97.76
2022-12-25T02:59:04.360Z,97.65
2022-12-25T03:04:29.455Z,97.74
2022-12-25T03:09:57.858Z,97.28
2022-12-25T03:15:19.487Z,97.18
2022-12-25T03:20:39.671Z,97.11
2022-12-25T03:26:00.182Z,97.57
2022-12-25T03:31:15.127Z,97.40
2022-12-25T03:36:28.441Z,97.59
2022-12-25T03:42:01.194Z,97.62
2022-12-25T03:47:35.666Z,96.79
2022-12-25T03:52:57.590Z,96.79
2022-12-25T03:58:17.431Z,96.89
2022-12-25T04:03:37.460Z,96.85
2022-12-25T04:08:57.720Z,97.09
2022-12-25T04:14:17.986Z,96.94
2022-12-25T04:19:37.800Z,97.28
2022-12-25T04:24:57.845Z,97.04
2022-12-25T04:30:17.898Z,96.83
2022-12-25T04:35:38.152Z,97.17
2022-12-25T04:40:39.789Z,97.45
2022-12-25T04:45:41.043Z,97.51
2022-12-25T04:50:42.417Z,97.71
2022-12-25T04:55:43.713Z,97.84
2022-12-25T05:00:44.953Z,97.41
2022-12-25T05:05:47.829Z,97.16
2022-12-25T05:10:49.889Z,97.42
2022-12-25T05:15:51.742Z,97.28
2022-12-25T05:20:54.252Z,97.64
2022-12-25T05:25:55.939Z,97.71
2022-12-25T05:30:57.365Z,97.58
2022-12-25T05:36:02.963Z,97.34
2022-12-25T05:41:04.861Z,97.30
2022-12-25T05:46:08.281Z,97.31
2022-12-25T05:51:12.119Z,97.63
2022-12-25T05:56:13.433Z,97.87
2022-12-25T06:01:20.905Z,98.01
2022-12-25T06:06:22.284Z,97.65
2022-12-25T06:11:23.788Z,97.53
2022-12-25T06:16:25.112Z,97.32
2022-12-25T06:21:26.435Z,96.89
2022-12-25T06:26:27.787Z,97.43
2022-12-25T06:31:29.112Z,97.15
2022-12-25T06:36:30.924Z,97.33
2022-12-25T06:41:32.310Z,96.81
2022-12-25T06:46:33.791Z,96.75
2022-12-25T06:51:35.232Z,96.88
2022-12-25T06:56:37.097Z,97.16
2022-12-25T07:01:45.965Z,97.36
2022-12-25T07:06:47.809Z,97.61
2022-12-25T07:11:49.075Z,97.75
2022-12-25T07:16:50.583Z,98.32
2022-12-25T07:21:53.068Z,98.57
2022-12-25T07:26:54.283Z,98.27
2022-12-25T07:31:55.968Z,97.54
2022-12-25T07:36:57.375Z,97.50
2022-12-25T07:41:59.579Z,97.78
2022-12-25T07:47:02.188Z,97.55
2022-12-25T07:52:03.987Z,97.44
2022-12-25T07:57:05.300Z,97.43
2022-12-25T08:02:07.056Z,97.39
2022-12-25T08:07:08.506Z,97.26
2022-12-25T08:12:09.708Z,97.00
2022-12-25T08:17:11.123Z,97.20
2022-12-25T08:22:12.668Z,96.76
2022-12-25T08:27:13.977Z,96.74
2022-12-25T08:32:15.591Z,96.67
2022-12-25T08:37:17.019Z,96.68
2022-12-25T08:42:18.531Z,96.52
2022-12-25T08:47:19.824Z,96.53
2022-12-25T08:52:21.099Z,95.72
2022-12-25T08:57:22.378Z,95.87
2022-12-25T09:02:23.780Z,95.76
2022-12-25T09:07:25.561Z,95.76
2022-12-25T09:12:26.841Z,95.69
2022-12-25T09:17:28.165Z,95.84
2022-12-25T09:22:29.452Z,95.84
2022-12-25T09:27:31.156Z,95.79
2022-12-25T09:32:32.463Z,95.53
2022-12-25T09:37:34.821Z,95.37
2022-12-25T09:42:36.265Z,95.31
2022-12-25T09:47:40.701Z,94.91
2022-12-25T09:53:03.916Z,95.02
2022-12-25T09:58:12.336Z,94.54
2022-12-25T10:03:32.408Z,94.00
2022-12-25T10:09:12.300Z,94.39
2022-12-25T10:14:23.045Z,94.79
2022-12-25T10:19:46.467Z,94.99
2022-12-25T10:24:53.988Z,95.22
2022-12-25T10:29:55.440Z,95.54
2022-12-25T10:34:57.096Z,95.28
2022-12-25T10:39:58.501Z,94.75
2022-12-25T10:45:04.482Z,94.29
2022-12-25T10:50:27.777Z,94.16
2022-12-25T10:55:30.046Z,94.83
2022-12-25T11:00:32.479Z,94.37
2022-12-25T11:05:36.357Z,93.98
2022-12-25T11:10:43.147Z,94.44
2022-12-25T11:15:47.805Z,94.98
2022-12-25T11:21:31.933Z,94.78
2022-12-25T11:26:50.300Z,94.07
2022-12-25T11:31:54.897Z,94.25
2022-12-25T11:36:58.261Z,94.56
2022-12-25T11:42:45.562Z,94.86
2022-12-25T11:47:55.145Z,95.40
2022-12-25T11:53:00.759Z,95.35
2022-12-25T11:58:11.879Z,94.97
2022-12-25T12:03:18.363Z,95.14
2022-12-25T12:08:19.738Z,94.76
2022-12-25T12:13:44.896Z,94.83
2022-12-25T12:18:50.288Z,95.19
2022-12-25T12:24:20.101Z,95.83
2022-12-25T12:29:27.101Z,95.56
2022-12-25T12:34:36.828Z,95.43
2022-12-25T12:39:40.003Z,95.62
2022-12-25T12:44:42.413Z,95.42
2022-12-25T12:49:43.771Z,95.16
2022-12-25T12:55:05.850Z,94.95
2022-12-25T13:00:16.346Z,95.10
2022-12-25T13:05:56.283Z,95.65
2022-12-25T13:11:21.717Z,95.78
2022-12-25T13:16:44.156Z,95.39
2022-12-25T13:22:30.489Z,94.94
2022-12-25T13:27:33.137Z,94.46
2022-12-25T13:32:34.913Z,94.41
2022-12-25T13:37:36.526Z,94.17
2022-12-25T13:42:41.286Z,94.30
2022-12-25T13:47:48.671Z,94.75
2022-12-25T13:52:54.557Z,94.88
2022-12-25T13:58:02.651Z,95.31
2022-12-25T14:03:06.873Z,95.33
2022-12-25T14:08:18.558Z,95.27
2022-12-25T14:13:24.285Z,95.47
2022-12-25T14:18:26.581Z,95.82
2022-12-25T14:23:38.655Z,95.68
2022-12-25T14:28:39.986Z,95.66
2022-12-25T14:33:41.881Z,95.84
2022-12-25T14:38:43.279Z,95.98
2022-12-25T14:43:52.876Z,95.85
2022-12-25T14:49:37.860Z,95.54
2022-12-25T14:54:43.420Z,95.56
2022-12-25T14:59:44.923Z,95.86
2022-12-25T15:04:46.510Z,95.38
2022-12-25T15:09:47.956Z,95.38
2022-12-25T15:14:49.301Z,95.55
2022-12-25T15:19:52.259Z,95.66
2022-12-25T15:24:58.761Z,95.71
2022-12-25T15:30:11.135Z,96.22
2022-12-25T15:35:19.025Z,96.63
2022-12-25T15:40:20.736Z,96.44
2022-12-25T15:45:45.777Z,96.57
2022-12-25T15:50:47.115Z,96.86
2022-12-25T15:55:48.485Z,96.93
2022-12-25T16:00:50.072Z,97.26
2022-12-25T16:05:51.371Z,97.46
2022-12-25T16:10:53.123Z,97.77
2022-12-25T16:15:54.562Z,98.25
2022-12-25T16:20:57.434Z,98.42
2022-12-25T16:25:58.697Z,98.48
2022-12-25T16:31:00.572Z,98.62
2022-12-25T16:36:01.933Z,98.60
2022-12-25T16:41:03.434Z,98.68
2022-12-25T16:46:23.748Z,98.79
2022-12-25T16:51:25.129Z,98.91
2022-12-25T16:56:27.675Z,98.93
2022-12-25T17:01:29.687Z,99.53
2022-12-25T17:06:31.517Z,99.25
2022-12-25T17:11:32.893Z,99.25
2022-12-25T17:16:36.715Z,99.32
2022-12-25T17:21:38.191Z,99.44
2022-12-25T17:26:40.808Z,99.85
2022-12-25T17:31:42.204Z,99.99
2022-12-25T17:36:43.678Z,100.00
2022-12-25T17:41:45.437Z,100.00
2022-12-25T17:46:47.610Z,100.00
2022-12-25T17:51:49.686Z,100.00
2022-12-25T17:56:51.051Z,100.00
2022-12-25T18:01:52.744Z,100.00
2022-12-25T18:06:56.294Z,100.00
2022-12-25T18:11:57.679Z,100.00
2022-12-25T18:16:59.123Z,100.00
2022-12-25T18:22:00.745Z,100.00
2022-12-25T18:27:02.055Z,100.00
2022-12-25T18:32:04.798Z,100.00
2022-12-25T18:37:06.119Z,100.00
2022-12-25T18:42:26.228Z,100.00
2022-12-25T18:47:27.745Z,100.00
2022-12-25T18:52:47.894Z,100.00
2022-12-25T18:57:52.275Z,100.00
2022-12-25T19:02:58.248Z,100.00
2022-12-25T19:07:59.779Z,100.00
2022-12-25T19:13:01.127Z,100.00
2022-12-25T19:18:02.864Z,100.00
2022-12-25T19:23:04.573Z,100.00
2022-12-25T19:28:06.211Z,100.00
2022-12-25T19:33:12.359Z,100.00
2022-12-25T19:38:19.719Z,100.00
2022-12-25T19:43:21.084Z,100.00
2022-12-25T19:48:23.011Z,100.00
2022-12-25T19:53:24.453Z,100.00
2022-12-25T19:58:25.717Z,100.00
2022-12-25T20:03:27.632Z,100.00
2022-12-25T20:08:29.170Z,100.00
2022-12-25T20:13:30.864Z,100.00
2022-12-25T20:18:41.800Z,100.00
2022-12-25T20:23:45.790Z,100.00
2022-12-25T20:28:47.123Z,100.00
2022-12-25T20:33:48.971Z,100.00
2022-12-25T20:38:53.430Z,100.00
2022-12-25T20:43:55.954Z,100.00
2022-12-25T20:48:57.563Z,100.00
2022-12-25T20:53:59.017Z,100.00
2022-12-25T20:59:00.658Z,100.00
2022-12-25T21:04:02.751Z,100.00
2022-12-25T21:09:04.968Z,100.00
2022-12-25T21:14:06.290Z,100.00
2022-12-25T21:19:10.245Z,100.00
2022-12-25T21:24:12.143Z,100.00
2022-12-25T21:29:13.592Z,100.00
2022-12-25T21:34:14.883Z,100.00
2022-12-25T21:39:16.599Z,100.00
2022-12-25T21:44:17.952Z,100.00
2022-12-25T21:49:38.123Z,100.00
2022-12-25T21:54:39.397Z,100.00
2022-12-25T21:59:40.769Z,100.00
2022-12-25T22:04:42.237Z,100.00
2022-12-25T22:09:48.598Z,100.00
2022-12-25T22:14:54.342Z,100.00
2022-12-25T22:19:57.294Z,100.00
2022-12-25T22:25:01.219Z,100.00
2022-12-25T22:30:09.582Z,100.00
2022-12-25T22:35:12.572Z,100.00
2022-12-25T22:40:16.655Z,100.00
2022-12-25T22:45:18.168Z,100.00
2022-12-25T22:50:19.527Z,100.00
2022-12-25T22:55:20.971Z,100.00
2022-12-25T23:00:22.282Z,100.00
2022-12-25T23:05:24.044Z,100.00
2022-12-25T23:10:25.334Z,100.00
2022-12-25T23:15:27.426Z,100.00
2022-12-25T23:20:47.621Z,100.00
2022-12-25T23:26:07.760Z,100.00
2022-12-25T23:31:09.097Z,100.00
2022-12-25T23:36:10.977Z,100.00
2022-12-25T23:41:12.263Z,100.00
2022-12-25T23:46:14.708Z,100.00
2022-12-25T23:51:16.065Z,100.00
2022-12-25T23:56:17.337Z,100.00
